Time;durP1;ratioP1;P1;durP2;ratioP2;P2;SDS_P1;SDS_P2;PMS_P1;PMS_P2;Temp;Humidity;BMP_temperature;BMP_pressure;BME280_temperature;BME280_humidity;BME280_pressure;Samples;Min_cycle;Max_cycle;Signal;HPM_P1;HPM_P2
2023/10/06 00:00:42;;;;;;;14.60;10.77;;;12.40;99.90;;;;;;6310726;22;20403;-86
2023/10/06 00:03:14;;;;;;;15.73;10.83;;;12.50;99.90;;;;;;6324679;22;20398;-86
2023/10/06 00:05:41;;;;;;;14.03;10.67;;;12.40;99.90;;;;;;6331756;22;20411;-86
2023/10/06 00:08:12;;;;;;;13.63;10.73;;;12.40;99.90;;;;;;6330376;22;20424;-86
2023/10/06 00:10:44;;;;;;;15.13;11.17;;;12.40;99.90;;;;;;6336533;22;20394;-85
2023/10/06 00:13:13;;;;;;;16.80;11.97;;;12.40;99.90;;;;;;6336777;22;20436;-85
2023/10/06 00:15:40;;;;;;;13.30;11.07;;;12.40;99.90;;;;;;6335638;22;20396;-85
2023/10/06 00:18:16;;;;;;;14.53;10.10;;;12.40;99.90;;;;;;6328107;22;20450;-86
2023/10/06 00:20:48;;;;;;;13.10;10.27;;;12.40;99.90;;;;;;6310882;22;20383;-87
2023/10/06 00:23:20;;;;;;;11.40;10.00;;;12.40;99.90;;;;;;6310306;22;20385;-86
2023/10/06 00:25:47;;;;;;;14.30;12.10;;;12.10;99.90;;;;;;6310109;22;20387;-87
2023/10/06 00:28:19;;;;;;;15.60;11.20;;;12.40;99.90;;;;;;6308391;22;20433;-87
2023/10/06 00:30:47;;;;;;;16.10;11.93;;;12.40;99.90;;;;;;6309679;22;20437;-87
2023/10/06 00:33:15;;;;;;;16.10;12.70;;;12.40;99.90;;;;;;6309630;22;20396;-87
2023/10/06 00:35:44;;;;;;;19.40;12.60;;;12.40;99.90;;;;;;6325467;22;20387;-87
2023/10/06 00:38:16;;;;;;;13.00;11.60;;;12.40;99.90;;;;;;6316547;22;20912;-86
2023/10/06 00:40:51;;;;;;;17.53;12.07;;;12.40;99.90;;;;;;6334888;22;20395;-84
2023/10/06 00:43:34;;;;;;;15.37;11.67;;;12.40;99.90;;;;;;6321135;22;20792;-86
2023/10/06 00:46:06;;;;;;;15.60;10.97;;;12.50;99.90;;;;;;6310611;22;20395;-86
2023/10/06 00:48:34;;;;;;;15.40;12.20;;;12.40;99.90;;;;;;6312096;22;20570;-86
2023/10/06 00:51:05;;;;;;;12.97;10.27;;;12.30;99.90;;;;;;6315287;22;20403;-85
2023/10/06 00:53:33;;;;;;;20.93;13.20;;;12.30;99.90;;;;;;6315043;22;20384;-86
2023/10/06 00:56:10;;;;;;;13.43;10.80;;;12.30;99.90;;;;;;6310859;22;20403;-88
2023/10/06 00:58:41;;;;;;;12.93;10.13;;;12.30;99.90;;;;;;6334826;22;20367;-85
2023/10/06 01:01:12;;;;;;;12.87;10.27;;;12.40;99.90;;;;;;6306985;22;20456;-85
2023/10/06 01:03:41;;;;;;;14.87;10.60;;;12.40;99.90;;;;;;6295241;22;20389;-87
2023/10/06 01:06:13;;;;;;;17.73;11.80;;;12.70;99.90;;;;;;6289321;22;20414;-86
2023/10/06 01:08:45;;;;;;;15.03;10.40;;;12.60;99.90;;;;;;6288154;22;20409;-86
2023/10/06 01:11:17;;;;;;;16.87;12.60;;;12.40;99.90;;;;;;6288181;22;20513;-86
2023/10/06 01:13:53;;;;;;;13.70;10.43;;;12.30;99.90;;;;;;6284549;22;20882;-86
2023/10/06 01:16:25;;;;;;;12.00;10.03;;;11.70;99.90;;;;;;6281798;22;20424;-86
2023/10/06 01:19:00;;;;;;;14.70;10.70;;;12.20;99.90;;;;;;6280981;22;20447;-86
2023/10/06 01:21:29;;;;;;;14.23;10.53;;;12.20;99.90;;;;;;6279714;22;20868;-86
2023/10/06 01:24:00;;;;;;;13.73;11.00;;;12.20;99.90;;;;;;6291753;22;20472;-85
2023/10/06 01:26:27;;;;;;;13.70;10.70;;;12.10;99.90;;;;;;6288315;22;20699;-86
2023/10/06 01:28:54;;;;;;;14.70;10.97;;;12.10;99.90;;;;;;6282586;22;20440;-87
2023/10/06 01:31:20;;;;;;;14.43;10.80;;;12.10;99.90;;;;;;6281860;22;20439;-86
2023/10/06 01:33:47;;;;;;;12.33;10.13;;;12.10;99.90;;;;;;6281770;22;20400;-86
2023/10/06 01:36:14;;;;;;;14.97;10.87;;;12.10;99.90;;;;;;6280103;22;20815;-85
2023/10/06 01:38:43;;;;;;;18.10;11.80;;;12.10;99.90;;;;;;6283607;22;20401;-86
2023/10/06 01:41:12;;;;;;;15.10;11.23;;;12.20;99.90;;;;;;6283977;22;20472;-86
2023/10/06 01:43:39;;;;;;;20.27;10.43;;;12.20;99.90;;;;;;6280942;22;20406;-86
2023/10/06 01:46:08;;;;;;;15.47;10.83;;;12.60;99.90;;;;;;6280082;22;20397;-86
2023/10/06 01:48:36;;;;;;;12.20;9.40;;;12.40;99.90;;;;;;6279838;22;20474;-86
2023/10/06 01:51:08;;;;;;;20.50;11.63;;;12.30;99.90;;;;;;6279648;22;20404;-86
2023/10/06 01:53:35;;;;;;;16.37;10.93;;;12.30;99.90;;;;;;6281383;22;20404;-86
2023/10/06 01:56:06;;;;;;;15.60;11.20;;;12.40;99.90;;;;;;6282340;22;20413;-86
2023/10/06 01:58:35;;;;;;;19.43;11.87;;;12.40;99.90;;;;;;6282162;22;20770;-86
2023/10/06 02:01:05;;;;;;;16.43;11.40;;;12.50;99.90;;;;;;6296186;22;20388;-86
2023/10/06 02:03:38;;;;;;;17.80;11.73;;;12.40;99.90;;;;;;6306887;22;20373;-86
2023/10/06 02:06:12;;;;;;;13.20;11.33;;;13.20;99.90;;;;;;6306828;22;20373;-84
2023/10/06 02:08:40;;;;;;;15.00;11.10;;;12.50;99.90;;;;;;6306554;22;20368;-85
2023/10/06 02:11:09;;;;;;;18.03;12.33;;;12.60;99.90;;;;;;6304523;22;20476;-86
2023/10/06 02:13:38;;;;;;;16.70;12.13;;;12.60;99.90;;;;;;6302107;22;20419;-87
2023/10/06 02:16:06;;;;;;;16.20;10.93;;;12.70;99.90;;;;;;6280389;22;20415;-87
2023/10/06 02:18:36;;;;;;;17.90;12.63;;;12.60;99.90;;;;;;6280581;22;20416;-87
2023/10/06 02:21:10;;;;;;;16.83;11.70;;;12.70;99.90;;;;;;6279540;22;20401;-87
2023/10/06 02:23:38;;;;;;;16.60;11.63;;;12.80;99.90;;;;;;6279381;22;20439;-87
2023/10/06 02:26:10;;;;;;;17.53;12.47;;;12.90;99.90;;;;;;6292159;22;20403;-87
2023/10/06 02:28:44;;;;;;;19.67;12.70;;;12.80;99.90;;;;;;6306063;22;20369;-85
2023/10/06 02:31:12;;;;;;;17.40;12.00;;;12.80;99.90;;;;;;6306566;22;20409;-84
2023/10/06 02:33:40;;;;;;;16.40;12.57;;;12.80;99.90;;;;;;6306530;22;20383;-85
2023/10/06 02:36:17;;;;;;;19.50;13.30;;;12.50;99.90;;;;;;6302644;22;20471;-86
2023/10/06 02:38:47;;;;;;;16.43;12.47;;;12.90;99.90;;;;;;6293674;22;20390;-87
2023/10/06 02:41:19;;;;;;;17.80;13.17;;;12.90;99.90;;;;;;6298547;22;20403;-87
2023/10/06 02:43:51;;;;;;;18.60;13.30;;;12.90;99.90;;;;;;6289632;22;20431;-87
2023/10/06 02:46:20;;;;;;;17.00;12.67;;;12.90;99.90;;;;;;6280984;22;20499;-87
2023/10/06 02:48:50;;;;;;;19.00;13.57;;;13.00;99.90;;;;;;6280917;22;20495;-87
2023/10/06 02:51:28;;;;;;;19.20;13.20;;;13.00;99.90;;;;;;6280050;22;20440;-87
2023/10/06 02:54:09;;;;;;;19.07;13.77;;;13.00;99.90;;;;;;6279222;22;20388;-86
2023/10/06 02:56:38;;;;;;;17.40;12.27;;;13.00;99.90;;;;;;6279059;22;20801;-86
2023/10/06 02:59:20;;;;;;;21.37;14.00;;;13.00;99.90;;;;;;6278953;22;20483;-86
2023/10/06 03:01:54;;;;;;;19.10;13.93;;;13.10;99.90;;;;;;6279720;22;20900;-86
2023/10/06 03:04:25;;;;;;;17.33;12.27;;;13.10;99.90;;;;;;6279217;22;20728;-87
2023/10/06 03:06:55;;;;;;;21.37;14.33;;;13.40;99.90;;;;;;6278490;22;20432;-86
2023/10/06 03:09:27;;;;;;;20.33;15.00;;;13.10;99.90;;;;;;6279303;22;20482;-86
2023/10/06 03:11:58;;;;;;;21.97;15.03;;;13.10;99.90;;;;;;6279607;22;20467;-87
2023/10/06 03:14:37;;;;;;;18.63;14.00;;;13.20;99.90;;;;;;6278486;22;20871;-87
2023/10/06 03:17:09;;;;;;;20.93;14.03;;;13.20;99.90;;;;;;6292853;22;20460;-86
2023/10/06 03:19:37;;;;;;;21.77;14.30;;;13.20;99.90;;;;;;6279127;22;20487;-86
2023/10/06 03:22:06;;;;;;;20.30;13.50;;;13.30;99.90;;;;;;6298567;22;20405;-84
2023/10/06 03:24:34;;;;;;;21.83;14.73;;;13.20;99.90;;;;;;6306000;22;20388;-85
2023/10/06 03:27:04;;;;;;;25.77;15.87;;;13.20;99.90;;;;;;6305698;22;20416;-86
2023/10/06 03:29:46;;;;;;;17.13;13.63;;;13.20;99.90;;;;;;6287410;22;20429;-86
2023/10/06 03:32:20;;;;;;;26.83;15.57;;;13.20;99.90;;;;;;6281301;22;20423;-86
2023/10/06 03:34:47;;;;;;;23.23;15.43;;;13.20;99.90;;;;;;6279568;22;20385;-87
2023/10/06 03:37:16;;;;;;;20.77;15.67;;;13.30;99.90;;;;;;6279875;22;20424;-87
2023/10/06 03:39:50;;;;;;;24.43;15.20;;;13.20;99.90;;;;;;6280178;22;20422;-86
2023/10/06 03:42:20;;;;;;;23.57;15.20;;;13.30;99.90;;;;;;6280633;22;20448;-86
2023/10/06 03:44:53;;;;;;;19.03;13.77;;;13.20;99.90;;;;;;6280797;22;20491;-87
2023/10/06 03:47:20;;;;;;;20.53;15.53;;;13.20;99.90;;;;;;6300172;22;20435;-85
2023/10/06 03:49:47;;;;;;;21.97;15.67;;;13.20;99.90;;;;;;6300851;22;20447;-86
2023/10/06 03:52:16;;;;;;;20.20;15.97;;;13.20;99.90;;;;;;6300738;22;20435;-87
2023/10/06 03:54:42;;;;;;;19.80;15.73;;;13.20;99.90;;;;;;6302622;22;20408;-87
2023/10/06 03:57:11;;;;;;;22.00;16.20;;;13.30;99.90;;;;;;6302228;22;20432;-86
2023/10/06 03:59:40;;;;;;;23.33;15.30;;;13.30;99.90;;;;;;6302702;22;20412;-86
2023/10/06 04:02:08;;;;;;;22.33;14.30;;;13.30;99.90;;;;;;6301696;22;20850;-87
2023/10/06 04:04:39;;;;;;;28.50;14.93;;;13.30;99.90;;;;;;6301633;22;20400;-86
2023/10/06 04:07:06;;;;;;;23.87;14.73;;;13.30;99.90;;;;;;6284139;22;20458;-86
2023/10/06 04:09:33;;;;;;;24.00;16.83;;;13.30;99.90;;;;;;6288304;22;20887;-86
2023/10/06 04:12:02;;;;;;;27.57;16.77;;;13.30;99.90;;;;;;6282579;22;20416;-86
2023/10/06 04:14:31;;;;;;;26.40;17.70;;;13.30;99.90;;;;;;6294048;22;20399;-86
2023/10/06 04:17:01;;;;;;;29.97;17.60;;;13.30;99.90;;;;;;6303781;22;20403;-86
2023/10/06 04:19:30;;;;;;;22.33;15.23;;;13.30;99.90;;;;;;6297090;22;20417;-87
2023/10/06 04:21:56;;;;;;;30.30;18.23;;;13.10;99.90;;;;;;6295788;22;20407;-87
2023/10/06 04:24:24;;;;;;;25.37;17.27;;;13.30;99.90;;;;;;6287319;22;20464;-87
2023/10/06 04:26:51;;;;;;;21.57;16.87;;;13.20;99.90;;;;;;6285682;22;20463;-87
2023/10/06 04:29:19;;;;;;;28.13;17.23;;;13.20;99.90;;;;;;6300221;22;20415;-87
2023/10/06 04:31:47;;;;;;;21.60;16.53;;;13.20;99.90;;;;;;6306764;22;20456;-85
2023/10/06 04:34:15;;;;;;;22.83;17.37;;;13.10;99.90;;;;;;6306151;22;20406;-86
2023/10/06 04:36:44;;;;;;;28.53;19.73;;;13.30;99.90;;;;;;6287021;22;20424;-86
2023/10/06 04:39:15;;;;;;;28.07;19.00;;;13.20;99.90;;;;;;6281529;22;20480;-86
2023/10/06 04:41:42;;;;;;;25.87;19.10;;;13.20;99.90;;;;;;6281689;22;20391;-86
2023/10/06 04:44:10;;;;;;;25.67;18.30;;;13.20;99.90;;;;;;6281594;22;20510;-86
2023/10/06 04:46:37;;;;;;;33.00;22.10;;;13.20;99.90;;;;;;6281109;22;20424;-87
2023/10/06 04:49:04;;;;;;;29.07;20.27;;;13.20;99.90;;;;;;6283669;22;20787;-87
2023/10/06 04:51:34;;;;;;;30.03;19.03;;;13.20;99.90;;;;;;6280386;22;20473;-87
2023/10/06 04:54:02;;;;;;;34.10;20.63;;;13.20;99.90;;;;;;6280577;22;20487;-87
2023/10/06 04:56:32;;;;;;;30.60;20.73;;;13.20;99.90;;;;;;6280441;22;20467;-87
2023/10/06 04:58:59;;;;;;;29.80;20.00;;;13.20;99.90;;;;;;6280748;22;20491;-86
2023/10/06 05:01:30;;;;;;;29.27;20.33;;;13.30;99.90;;;;;;6281301;22;20396;-85
2023/10/06 05:03:57;;;;;;;29.73;18.73;;;13.30;99.90;;;;;;6280973;22;20727;-87
2023/10/06 05:06:24;;;;;;;31.10;19.90;;;13.20;99.90;;;;;;6281381;22;20827;-87
2023/10/06 05:08:51;;;;;;;38.73;21.47;;;13.20;99.90;;;;;;6281254;22;20400;-87
2023/10/06 05:11:20;;;;;;;30.37;21.17;;;13.20;99.90;;;;;;6280584;22;20446;-86
2023/10/06 05:13:49;;;;;;;38.03;23.47;;;13.20;99.90;;;;;;6280961;22;20408;-86
2023/10/06 05:16:16;;;;;;;34.77;22.50;;;13.20;99.90;;;;;;6281523;22;20420;-86
2023/10/06 05:18:45;;;;;;;36.33;22.90;;;13.20;99.90;;;;;;6280892;22;20407;-86
2023/10/06 05:21:12;;;;;;;32.20;22.77;;;13.20;99.90;;;;;;6280631;22;20435;-86
2023/10/06 05:23:41;;;;;;;31.10;21.30;;;13.20;99.90;;;;;;6281720;22;20404;-87
2023/10/06 05:26:10;;;;;;;33.30;22.57;;;13.20;99.90;;;;;;6281049;22;20458;-87
2023/10/06 11:48:28;;;;;;;7.17;4.90;;;17.60;1.00;;;;;;6213466;22;884540;-87
2023/10/06 11:51:06;;;;;;;5.63;3.70;;;17.60;1.00;;;;;;6165308;23;1533357;-87
2023/10/06 11:53:33;;;;;;;5.60;3.63;;;17.70;21.20;;;;;;6205038;23;20402;-86
2023/10/06 11:56:08;;;;;;;11.23;3.67;;;18.00;99.90;;;;;;6220324;23;20399;-87
2023/10/06 11:58:37;;;;;;;2.60;2.40;;;17.80;1.00;;;;;;6195830;23;20512;-86
2023/10/06 12:01:05;;;;;;;4.27;3.30;;;17.90;1.00;;;;;;6171301;23;20487;-86
2023/10/06 14:07:48;;;;;;;5.63;3.73;;;16.80;99.90;;;;;;6224575;23;20469;-87
2023/10/06 14:10:16;;;;;;;7.77;4.10;;;16.80;99.10;;;;;;6232648;23;20745;-87
2023/10/06 14:12:48;;;;;;;7.60;3.37;;;;;;;;;;6239510;23;20417;-87
2023/10/06 14:15:30;;;;;;;5.80;3.30;;;;;;;;;;6235684;23;20415;-87
2023/10/06 14:17:58;;;;;;;7.63;3.90;;;;;;;;;;6200694;23;20392;-86
2023/10/06 14:20:27;;;;;;;6.00;3.47;;;;;;;;;;6194914;23;20506;-87
2023/10/06 14:22:58;;;;;;;5.60;3.70;;;16.80;1.00;;;;;;6194016;23;20411;-87
2023/10/06 14:25:27;;;;;;;5.40;3.47;;;16.80;99.90;;;;;;6195578;23;20448;-87
2023/10/06 14:27:55;;;;;;;7.90;3.70;;;16.70;1.00;;;;;;6206100;23;20471;-87
2023/10/06 14:30:24;;;;;;;4.90;4.07;;;16.70;1.00;;;;;;6200201;23;20419;-87
2023/10/06 14:35:45;;;;;;;5.03;3.40;;;16.70;99.90;;;;;;6188662;23;20955;-88
2023/10/06 14:46:26;;;;;;;8.80;4.30;;;16.70;1.00;;;;;;6192842;23;20463;-87
2023/10/06 14:48:54;;;;;;;6.47;4.10;;;;;;;;;;6193622;23;20481;-87
2023/10/06 14:51:21;;;;;;;17.03;6.70;;;16.70;25.90;;;;;;6201555;23;20410;-88
2023/10/06 14:53:50;;;;;;;4.43;3.97;;;16.70;1.00;;;;;;6212530;23;20405;-87
2023/10/06 14:56:17;;;;;;;7.90;4.97;;;16.50;99.90;;;;;;6212592;23;20407;-86
2023/10/06 14:58:44;;;;;;;10.47;6.97;;;16.60;1.00;;;;;;6212232;23;20407;-87
2023/10/06 15:01:14;;;;;;;7.00;5.10;;;16.60;1.00;;;;;;6212851;23;20391;-87
2023/10/06 15:03:41;;;;;;;9.70;6.30;;;16.70;99.90;;;;;;6202808;23;20396;-87
2023/10/06 15:06:10;;;;;;;9.43;5.57;;;17.00;1.00;;;;;;6199883;23;20422;-87
2023/10/06 15:08:37;;;;;;;7.53;4.90;;;16.70;99.90;;;;;;6198618;23;20489;-88
2023/10/06 15:11:08;;;;;;;7.43;4.43;;;16.70;1.00;;;;;;6197603;23;20431;-88
2023/10/06 15:13:36;;;;;;;12.53;5.03;;;16.70;99.90;;;;;;6195759;23;20466;-87
2023/10/06 15:16:07;;;;;;;6.63;4.70;;;16.70;1.00;;;;;;6208384;23;20439;-87
2023/10/06 15:18:34;;;;;;;10.13;6.40;;;16.70;1.00;;;;;;6198668;23;20409;-87
2023/10/06 15:21:02;;;;;;;7.70;4.47;;;16.70;99.90;;;;;;6195747;23;20411;-88
2023/10/06 15:23:29;;;;;;;8.63;4.67;;;;;;;;;;6202002;23;20423;-87
2023/10/06 15:26:00;;;;;;;8.50;4.53;;;16.60;99.90;;;;;;6212323;23;20518;-87
2023/10/06 15:28:30;;;;;;;10.17;7.37;;;16.60;99.90;;;;;;6212423;23;20447;-87
2023/10/06 15:31:00;;;;;;;10.57;5.73;;;;;;;;;;6212144;23;20419;-87
2023/10/06 15:33:30;;;;;;;9.40;5.13;;;16.60;99.90;;;;;;6203324;23;20543;-86
2023/10/06 15:36:01;;;;;;;8.20;6.03;;;16.60;99.90;;;;;;6196908;23;20427;-88
2023/10/06 15:38:31;;;;;;;9.83;5.57;;;16.50;99.90;;;;;;6198532;23;20391;-85
2023/10/06 15:41:10;;;;;;;11.47;6.03;;;16.50;99.90;;;;;;6207596;23;20515;-88
2023/10/06 15:43:39;;;;;;;8.77;5.13;;;16.50;99.90;;;;;;6197990;23;20406;-87
2023/10/06 15:46:08;;;;;;;11.60;8.67;;;16.50;1.00;;;;;;6198071;23;20415;-87
2023/10/06 15:48:36;;;;;;;5.57;3.90;;;16.50;99.90;;;;;;6199643;23;20443;-87
2023/10/06 15:51:06;;;;;;;8.03;4.40;;;16.50;99.90;;;;;;6195411;23;20439;-87
2023/10/06 15:53:34;;;;;;;5.10;3.43;;;16.60;99.90;;;;;;6198549;23;20414;-87
2023/10/06 15:56:03;;;;;;;6.10;4.50;;;16.50;99.90;;;;;;6196675;23;20426;-88
2023/10/06 15:58:32;;;;;;;7.17;5.60;;;16.60;1.00;;;;;;6195952;23;20403;-88
2023/10/06 16:01:01;;;;;;;11.60;6.63;;;16.50;99.90;;;;;;6195980;23;20932;-87
2023/10/06 16:03:30;;;;;;;8.13;4.97;;;16.50;1.00;;;;;;6194484;23;20416;-86
2023/10/06 16:05:57;;;;;;;11.73;5.30;;;16.50;1.00;;;;;;6195897;23;20498;-88
2023/10/06 16:08:25;;;;;;;6.80;4.50;;;;;;;;;;6198156;23;20445;-88
2023/10/06 16:10:52;;;;;;;6.57;4.40;;;16.60;1.00;;;;;;6196214;23;20443;-87
2023/10/06 16:13:23;;;;;;;6.30;4.37;;;16.40;99.90;;;;;;6199258;23;20435;-86
2023/10/06 16:15:50;;;;;;;5.90;4.30;;;16.40;1.00;;;;;;6215028;23;20399;-85
2023/10/06 16:18:18;;;;;;;10.20;6.10;;;16.40;1.00;;;;;;6214783;23;20403;-86
2023/10/06 16:20:45;;;;;;;6.70;5.70;;;16.40;99.90;;;;;;6214650;23;20396;-87
2023/10/06 16:23:13;;;;;;;7.40;5.20;;;16.40;1.00;;;;;;6214484;23;20395;-86
2023/10/06 16:25:41;;;;;;;8.10;5.40;;;16.40;99.90;;;;;;6214118;23;20430;-85
2023/10/06 16:28:09;;;;;;;13.73;8.50;;;;;;;;;;6210231;23;20458;-87
2023/10/06 16:30:40;;;;;;;8.07;5.50;;;;;;;;;;6202732;23;20439;-87
2023/10/06 16:33:07;;;;;;;8.40;5.33;;;;;;;;;;6196015;23;20391;-87
2023/10/06 16:35:39;;;;;;;5.63;4.40;;;16.40;99.90;;;;;;6194021;23;20438;-87
2023/10/06 16:38:10;;;;;;;9.80;5.20;;;16.40;99.90;;;;;;6194981;23;20398;-87
2023/10/06 16:40:37;;;;;;;8.87;5.53;;;;;;;;;;6194425;23;20438;-86
2023/10/06 16:43:05;;;;;;;7.80;5.67;;;16.30;99.90;;;;;;6198785;23;20407;-87
2023/10/06 16:45:36;;;;;;;11.70;4.63;;;16.30;99.90;;;;;;6192137;23;20427;-86
2023/10/06 16:48:03;;;;;;;9.10;4.80;;;16.30;99.90;;;;;;6203059;23;20442;-86
2023/10/06 16:50:31;;;;;;;10.07;6.37;;;16.30;99.90;;;;;;6214682;23;20393;-87
2023/10/06 16:52:59;;;;;;;10.30;6.60;;;16.40;1.00;;;;;;6212891;23;20422;-87
2023/10/06 16:55:26;;;;;;;18.20;9.80;;;16.30;99.90;;;;;;6213755;23;20435;-86
2023/10/06 16:57:55;;;;;;;13.23;7.73;;;16.30;99.90;;;;;;6201166;23;20411;-87
2023/10/06 17:00:23;;;;;;;7.93;5.30;;;16.30;99.90;;;;;;6198450;23;20399;-87
2023/10/06 17:02:50;;;;;;;9.93;6.90;;;16.40;1.00;;;;;;6196760;23;20415;-87
2023/10/06 17:05:18;;;;;;;13.17;8.30;;;16.10;99.90;;;;;;6198415;23;20465;-88
2023/10/06 17:07:45;;;;;;;11.60;8.33;;;16.40;38.60;;;;;;6203259;23;20446;-88
2023/10/06 17:10:16;;;;;;;8.37;5.77;;;16.50;28.80;;;;;;6203527;23;20412;-87
2023/10/06 17:12:44;;;;;;;9.53;5.00;;;;;;;;;;6199466;23;20473;-87
2023/10/06 17:15:12;;;;;;;8.87;5.00;;;16.50;1.00;;;;;;6199480;23;20422;-86
2023/10/06 17:17:41;;;;;;;15.50;6.10;;;;;;;;;;6196876;23;20408;-86
2023/10/06 17:20:15;;;;;;;9.50;5.60;;;16.50;99.90;;;;;;6196887;23;20407;-88
2023/10/06 17:22:42;;;;;;;9.40;4.77;;;16.50;99.90;;;;;;6197827;23;20396;-88
2023/10/06 17:25:14;;;;;;;5.40;4.30;;;16.70;99.90;;;;;;6196611;23;20722;-87
2023/10/06 17:27:46;;;;;;;5.93;4.90;;;16.60;99.90;;;;;;6205283;23;20391;-88
2023/10/06 17:30:15;;;;;;;6.63;4.33;;;16.60;99.90;;;;;;6199737;23;20395;-88
2023/10/06 17:32:42;;;;;;;6.03;4.20;;;16.60;99.90;;;;;;6196996;23;20439;-88
2023/10/06 17:35:09;;;;;;;8.10;5.63;;;16.40;99.90;;;;;;6197438;23;20892;-87
2023/10/06 17:37:36;;;;;;;9.60;6.10;;;16.70;99.90;;;;;;6209654;23;20392;-87
2023/10/06 17:40:04;;;;;;;5.80;5.20;;;16.90;99.90;;;;;;6211008;23;20403;-88
2023/10/06 17:42:33;;;;;;;8.03;5.37;;;16.80;99.90;;;;;;6199362;23;20423;-87
2023/10/06 17:45:02;;;;;;;12.53;7.50;;;16.70;27.70;;;;;;6197094;23;20415;-88
2023/10/06 17:47:32;;;;;;;9.43;7.30;;;16.70;39.20;;;;;;6200403;23;20419;-87
2023/10/06 17:50:02;;;;;;;7.43;5.17;;;16.80;41.30;;;;;;6211566;23;20372;-87
2023/10/06 17:52:29;;;;;;;10.10;4.67;;;16.80;99.90;;;;;;6203926;23;20960;-87
2023/10/06 17:54:56;;;;;;;11.87;4.77;;;16.80;99.90;;;;;;6194430;23;20415;-87
2023/10/06 17:57:23;;;;;;;7.17;4.33;;;16.70;99.90;;;;;;6195622;23;20751;-87
2023/10/06 17:59:50;;;;;;;5.80;4.20;;;16.70;90.50;;;;;;6196763;23;20411;-87
2023/10/06 18:02:19;;;;;;;9.17;4.40;;;16.50;52.90;;;;;;6208883;23;20434;-85
2023/10/06 18:04:47;;;;;;;11.43;4.87;;;16.70;99.90;;;;;;6211599;23;20376;-87
2023/10/06 18:07:15;;;;;;;7.60;6.40;;;16.80;1.00;;;;;;6205264;23;20427;-86
2023/10/06 18:09:47;;;;;;;12.80;5.83;;;16.80;6.60;;;;;;6198772;23;20608;-86
2023/10/06 18:12:16;;;;;;;4.70;3.43;;;16.80;99.90;;;;;;6201643;23;20467;-87
2023/10/06 18:14:44;;;;;;;7.83;3.77;;;;;;;;;;6200619;23;20438;-88
2023/10/06 18:17:15;;;;;;;5.23;4.03;;;16.80;85.80;;;;;;6204111;23;20431;-87
2023/10/06 18:19:43;;;;;;;6.70;4.40;;;16.80;29.80;;;;;;6201092;23;20385;-87
2023/10/06 18:22:13;;;;;;;9.43;5.70;;;16.70;1.00;;;;;;6195354;23;20470;-87
2023/10/06 18:25:34;;;;;;;10.03;7.00;;;16.80;22.80;;;;;;6194243;23;20403;-86
2023/10/06 18:28:04;;;;;;;4.60;3.77;;;16.80;1.00;;;;;;6176958;23;20443;-87
2023/10/06 18:30:31;;;;;;;5.50;3.63;;;;;;;;;;6192243;23;20433;-87
2023/10/06 18:33:09;;;;;;;10.53;5.30;;;16.70;18.60;;;;;;6193156;23;20735;-86
2023/10/06 18:35:37;;;;;;;5.70;4.00;;;16.70;1.00;;;;;;6194972;23;20427;-87
2023/10/06 18:38:04;;;;;;;5.03;2.90;;;17.00;99.90;;;;;;6206657;23;20429;-87
2023/10/06 18:40:32;;;;;;;5.90;4.20;;;;;;;;;;6211612;23;20422;-86
2023/10/06 18:42:59;;;;;;;10.07;5.60;;;16.70;1.00;;;;;;6210932;23;20403;-86
2023/10/06 18:45:26;;;;;;;6.00;4.40;;;;;;;;;;6183015;23;20997;-87
2023/10/06 18:47:53;;;;;;;7.70;5.37;;;16.70;1.00;;;;;;6182701;23;20408;-86
2023/10/06 18:50:21;;;;;;;15.83;6.77;;;16.60;1.00;;;;;;6182575;23;20511;-86
2023/10/06 18:52:50;;;;;;;10.77;7.00;;;16.60;1.00;;;;;;6177738;23;20406;-87
2023/10/06 18:55:22;;;;;;;9.67;5.70;;;16.80;99.90;;;;;;6166386;23;20408;-87
2023/10/06 18:57:49;;;;;;;5.50;3.87;;;16.50;1.00;;;;;;6166850;23;20388;-87
2023/10/06 19:00:16;;;;;;;6.07;4.10;;;16.50;1.00;;;;;;6166211;23;20419;-87
2023/10/06 19:02:48;;;;;;;8.17;5.50;;;;;;;;;;6168172;23;20397;-87
2023/10/06 19:05:15;;;;;;;11.40;6.10;;;16.40;99.90;;;;;;6166238;23;20459;-86
2023/10/06 19:07:42;;;;;;;8.00;4.93;;;;;;;;;;6167961;23;20483;-87
2023/10/06 19:10:20;;;;;;;5.00;4.30;;;16.40;99.90;;;;;;6170519;23;20440;-87
2023/10/06 19:12:48;;;;;;;7.30;4.77;;;;;;;;;;6170097;23;20422;-86
2023/10/06 19:15:17;;;;;;;8.70;6.47;;;;;;;;;;6167790;23;20479;-87
2023/10/06 19:17:44;;;;;;;9.50;7.70;;;16.50;1.00;;;;;;6167071;23;20416;-86
2023/10/06 19:20:19;;;;;;;10.10;5.73;;;16.70;99.90;;;;;;6167167;23;20474;-87
2023/10/06 19:22:47;;;;;;;5.07;4.27;;;;;;;;;;6167341;23;20417;-87
2023/10/06 19:28:19;;;;;;;6.60;4.67;;;;;;;;;;6150877;23;20408;-87
2023/10/06 19:30:55;;;;;;;6.10;4.40;;;16.50;16.00;;;;;;6173260;23;20422;-87
2023/10/06 19:33:22;;;;;;;5.80;3.90;;;16.60;22.00;;;;;;6164847;23;20419;-87
2023/10/06 19:35:54;;;;;;;6.90;4.97;;;17.00;1.00;;;;;;6162953;23;20419;-87
2023/10/06 19:38:21;;;;;;;6.13;4.70;;;16.50;19.80;;;;;;6164008;23;20396;-86
2023/10/06 19:40:50;;;;;;;4.30;3.57;;;16.50;1.00;;;;;;6163903;23;20436;-86
2023/10/06 19:43:18;;;;;;;4.50;3.70;;;16.60;1.00;;;;;;6165139;23;20919;-86
2023/10/06 19:45:47;;;;;;;6.17;4.37;;;16.40;10.90;;;;;;6166140;23;20432;-87
2023/10/06 19:48:17;;;;;;;5.17;4.50;;;16.40;49.80;;;;;;6177530;23;20400;-86
2023/10/06 19:50:44;;;;;;;4.80;4.27;;;16.40;86.30;;;;;;6173714;23;20459;-86
2023/10/06 19:53:11;;;;;;;5.53;4.27;;;16.20;99.90;;;;;;6165968;23;20680;-87
2023/10/06 19:55:40;;;;;;;9.13;4.47;;;16.40;1.00;;;;;;6164261;23;20452;-87
2023/10/06 19:58:08;;;;;;;10.23;4.33;;;16.40;1.00;;;;;;6165137;23;20480;-86
2023/10/06 20:00:37;;;;;;;5.30;3.63;;;16.40;1.00;;;;;;6165066;23;20432;-86
2023/10/06 20:03:06;;;;;;;7.20;4.87;;;16.70;99.90;;;;;;6165127;23;20404;-87
2023/10/06 20:08:44;;;;;;;5.60;3.70;;;16.50;1.00;;;;;;6172627;23;20488;-87
2023/10/06 20:21:01;;;;;;;7.67;4.30;;;16.60;99.90;;;;;;6166510;23;20427;-87
2023/10/06 20:28:03;;;;;;;;;;;;;;;;;;;;;
2023/10/06 20:30:31;;;;;;;7.40;3.83;;;;;;;;;;5952192;23;20451;-85
2023/10/06 20:32:58;;;;;;;9.87;4.40;;;16.60;1.00;;;;;;6167547;23;20427;-87
2023/10/06 20:35:27;;;;;;;8.43;6.07;;;16.60;1.00;;;;;;6166605;23;20432;-87
2023/10/06 20:37:55;;;;;;;5.90;4.30;;;16.60;1.00;;;;;;6165140;23;20439;-87
2023/10/06 20:40:25;;;;;;;6.20;3.77;;;16.50;99.90;;;;;;6163662;23;20432;-87
2023/10/06 20:42:55;;;;;;;5.17;4.00;;;16.60;1.00;;;;;;6136621;23;20472;-87
2023/10/06 20:45:22;;;;;;;8.03;4.23;;;16.80;1.00;;;;;;6134891;23;20931;-87
2023/10/06 20:47:51;;;;;;;6.70;4.13;;;16.70;99.90;;;;;;6138159;23;20405;-87
2023/10/06 20:50:19;;;;;;;9.30;5.00;;;16.60;99.90;;;;;;6155106;23;20428;-87
2023/10/06 20:52:46;;;;;;;4.47;4.07;;;16.70;99.90;;;;;;6155218;23;20409;-86
2023/10/06 20:55:15;;;;;;;8.27;6.23;;;16.70;1.00;;;;;;6145640;23;20409;-87
2023/10/06 20:57:54;;;;;;;8.43;4.90;;;16.70;99.90;;;;;;6137665;23;20472;-87
2023/10/06 21:00:23;;;;;;;9.63;6.80;;;;;;;;;;6107479;23;20409;-87
2023/10/06 21:02:51;;;;;;;5.27;4.10;;;;;;;;;;6137317;23;20412;-87
2023/10/06 21:05:19;;;;;;;8.90;4.13;;;;;;;;;;6154339;23;20440;-86
2023/10/06 21:07:47;;;;;;;4.10;3.30;;;16.90;1.00;;;;;;6155393;23;20390;-85
2023/10/06 21:10:17;;;;;;;3.37;3.00;;;17.00;94.60;;;;;;6155227;23;20489;-87
2023/10/06 21:12:44;;;;;;;5.13;3.00;;;16.60;27.70;;;;;;6154824;23;20393;-86
2023/10/06 21:15:13;;;;;;;10.33;4.23;;;16.90;1.00;;;;;;6154683;23;20420;-87
2023/10/06 21:17:41;;;;;;;5.30;3.23;;;17.00;1.00;;;;;;6150826;23;20419;-87
2023/10/06 21:20:11;;;;;;;7.63;4.90;;;17.00;1.00;;;;;;6139257;23;20465;-87
2023/10/06 21:22:39;;;;;;;7.43;3.53;;;17.00;1.00;;;;;;6149214;23;20394;-88
2023/10/06 21:25:07;;;;;;;4.33;2.43;;;17.10;1.00;;;;;;6153662;23;20406;-87
2023/10/06 21:27:37;;;;;;;6.33;4.20;;;17.10;1.00;;;;;;6152639;23;20437;-87
2023/10/06 21:30:08;;;;;;;5.13;3.03;;;17.00;1.00;;;;;;6149473;23;21023;-87
2023/10/06 21:32:45;;;;;;;4.77;2.80;;;17.10;1.00;;;;;;6151495;23;20466;-87
2023/10/06 21:35:41;;;;;;;4.40;2.77;;;17.10;1.00;;;;;;6149740;23;20382;-86
2023/10/06 21:41:35;;;;;;;4.17;3.33;;;17.00;1.00;;;;;;6070100;23;20492;-87
2023/10/06 21:47:24;;;;;;;6.83;3.67;;;16.90;1.00;;;;;;6131562;23;20432;-87
2023/10/06 21:50:00;;;;;;;6.10;2.40;;;17.00;1.00;;;;;;6134274;23;20521;-87
2023/10/06 21:52:40;;;;;;;5.33;3.53;;;17.00;1.00;;;;;;6145513;23;20948;-87
2023/10/06 21:55:07;;;;;;;7.07;4.03;;;;;;;;;;6133694;23;20393;-87
2023/10/06 21:57:43;;;;;;;4.30;3.60;;;;;;;;;;6138873;23;20797;-86
2023/10/06 22:00:31;;;;;;;4.83;3.17;;;17.30;99.90;;;;;;6135249;23;20918;-88
2023/10/06 22:02:59;;;;;;;3.13;2.70;;;17.00;1.00;;;;;;6142357;23;20410;-87
2023/10/06 22:05:30;;;;;;;3.13;2.70;;;;;;;;;;6140549;23;20440;-87